1989 ANGELA (1989271N12142)


On this page: IBTrACS data - Map and Plots - Positions - Intensities - Original source data

Summary

Start Sep 28
End Oct 11
Basin WP
LMI 130 kt
Sources jtwc_wp
tokyo
cma
hko
td9636
In WMO? Yes
Previous storm 1989 MISSING (EP)
Previous in basin 1989 WAYNE (WP)
Concurrent storms 1989 RAYMOND (EP)
1989 ANGELA (WP)
1989 COLLEEN (WP)
1989 BRIAN (WP)
1989 MISSING (NA)
1989 MISSING (EP)
1989 DAN (WP)
1990 HSK0490 (SI)
Next in basin 1989 COLLEEN (WP)
Next storm 1989 COLLEEN (WP)

top of page IBTrACS Data: File Access

top of page HURSAT Data: File Access

Image of storm

top of page Plots:

Map of storm track will not appear if FTP is down
Time series of cyclone Maximum Sustained Wind will not appear if FTP is down
Time series of cyclone Minimum Central Pressure will not appear if FTP is down

top of page Track Data:Position

jtwc_wp tokyo cma hko td9636
Date Lat Lon Lat Lon Lat Lon Lat Lon Lat Lon
1989-09-28 00:00:00 12.0 142.4 12.0 142.4
1989-09-28 06:00:00 12.0 141.4 11.0 141.0 12.0 141.3
1989-09-28 12:00:00 12.1 140.4 11.4 140.5 11.0 140.0 12.1 140.4
1989-09-28 18:00:00 12.2 139.8 11.7 139.8 11.5 139.5 12.3 139.9
1989-09-29 00:00:00 12.7 139.7 12.0 139.2 12.4 139.4 12.7 139.7
1989-09-29 06:00:00 13.5 139.7 13.3 139.5 13.3 139.3 13.3 139.5 13.5 139.5
1989-09-29 12:00:00 14.3 139.3 14.4 139.5 14.3 139.4 14.2 139.3 14.3 139.3
1989-09-29 18:00:00 15.1 139.0 15.1 139.3 15.1 139.3 14.9 139.1 15.0 138.9
1989-09-30 00:00:00 15.5 138.6 15.5 138.9 15.5 138.9 15.4 138.8 15.5 138.6
1989-09-30 06:00:00 15.8 138.4 15.7 138.3 15.8 138.3 15.8 138.6 15.8 138.4
1989-09-30 12:00:00 16.0 138.3 16.0 138.2 16.0 138.2 16.1 138.3 16.0 138.3
1989-09-30 18:00:00 16.4 138.1 16.3 138.1 16.4 138.2 16.3 138.1 16.4 138.1
1989-10-01 00:00:00 16.5 137.7 16.5 137.9 16.5 137.9 16.4 137.8 16.5 137.7
1989-10-01 06:00:00 16.7 137.3 16.9 137.3 16.7 137.4 16.6 137.3 16.6 137.3
1989-10-01 12:00:00 16.8 136.7 17.0 136.8 16.9 136.7 16.8 136.7 16.8 136.7
1989-10-01 18:00:00 17.1 136.1 17.2 136.0 17.0 136.1 17.1 136.0 17.0 136.0
1989-10-02 00:00:00 17.3 135.2 17.4 135.3 17.4 135.3 17.3 135.2 17.3 135.2
1989-10-02 06:00:00 17.5 134.2 17.6 134.4 17.7 134.4 17.6 134.3 17.6 134.3
1989-10-02 12:00:00 17.8 133.4 17.8 133.5 17.8 133.5 17.8 133.4 17.8 133.4
1989-10-02 18:00:00 18.0 132.7 17.9 132.7 17.9 132.6 17.9 132.7 18.0 132.6
1989-10-03 00:00:00 18.1 131.9 18.0 132.0 18.0 132.0 18.0 132.0 18.1 131.9
1989-10-03 06:00:00 18.2 131.2 18.2 131.3 18.2 131.3 18.1 131.3 18.2 131.3
1989-10-03 12:00:00 18.2 130.7 18.2 130.8 18.2 130.8 18.1 130.7 18.2 130.7
1989-10-03 18:00:00 18.2 130.1 18.2 130.2 18.2 130.1 18.2 130.1 18.2 130.1
1989-10-04 00:00:00 18.2 129.4 18.2 129.5 18.1 129.5 18.2 129.4 18.2 129.4
jtwc_wp tokyo cma hko td9636
1989-10-04 06:00:00 18.2 128.5 18.2 128.6 18.2 128.5 18.2 128.5 18.2 128.4
1989-10-04 12:00:00 18.2 127.3 18.3 127.5 18.2 127.5 18.2 127.4 18.2 127.3
1989-10-04 18:00:00 18.2 126.0 18.2 126.4 18.2 126.3 18.1 126.3 18.1 126.2
1989-10-05 00:00:00 18.1 125.0 18.1 125.2 18.2 125.1 18.0 125.2 18.1 125.0
1989-10-05 06:00:00 18.1 123.9 18.2 124.1 18.2 124.1 18.1 124.1 18.1 123.9
1989-10-05 12:00:00 18.2 122.9 18.4 123.1 18.4 123.1 18.2 123.1 18.2 122.9
1989-10-05 18:00:00 18.4 122.0 18.7 122.2 18.7 122.1 18.4 122.1 18.4 122.0
1989-10-06 00:00:00 18.6 121.1 18.8 121.2 18.7 121.1 18.6 121.2 18.6 121.1
1989-10-06 06:00:00 18.7 120.1 18.8 120.2 18.8 120.1 18.7 120.2 18.7 120.2
1989-10-06 12:00:00 18.7 119.3 18.7 119.3 18.7 119.4 18.6 119.4 18.7 119.3
1989-10-06 18:00:00 18.6 118.6 18.6 118.5 18.5 118.5 18.6 118.7 18.6 118.6
1989-10-07 00:00:00 18.5 117.9 18.5 118.0 18.5 118.1 18.5 118.0 18.5 117.9
1989-10-07 06:00:00 18.3 117.2 18.4 117.3 18.4 117.4 18.4 117.3 18.3 117.2
1989-10-07 12:00:00 18.2 116.5 18.3 116.6 18.4 116.6 18.3 116.6 18.2 116.5
1989-10-07 18:00:00 18.2 115.8 18.3 115.9 18.4 115.9 18.3 115.9 18.2 115.8
1989-10-08 00:00:00 18.2 115.1 18.3 115.2 18.3 115.2 18.2 115.2 18.2 115.1
1989-10-08 06:00:00 18.1 114.4 18.2 114.5 18.2 114.5 18.1 114.5 18.1 114.3
1989-10-08 12:00:00 17.9 113.5 18.0 113.6 18.1 113.6 18.0 113.5 17.9 113.5
1989-10-08 18:00:00 17.7 112.5 17.9 112.5 17.9 112.6 17.7 112.5 17.7 112.6
1989-10-09 00:00:00 17.6 111.6 17.6 111.6 17.5 111.6 17.6 111.6 17.6 111.6
1989-10-09 06:00:00 17.5 110.7 17.6 110.7 17.5 110.7 17.5 110.7 17.5 110.6
1989-10-09 12:00:00 17.5 109.6 17.6 109.7 17.5 109.6 17.5 109.8 17.5 109.6
1989-10-09 18:00:00 17.4 108.6 17.6 108.8 17.5 108.8 17.5 108.8 17.4 108.7
1989-10-10 00:00:00 17.4 107.8 17.5 107.8 17.5 107.8 17.5 107.8 17.4 107.8
jtwc_wp tokyo cma hko td9636
1989-10-10 06:00:00 17.4 106.9 17.5 107.0 17.4 107.0 17.4 106.9 17.4 106.9
1989-10-10 12:00:00 17.4 106.0 17.5 106.4 17.4 105.8 17.3 106.0 17.4 106.0
1989-10-10 18:00:00 17.6 104.9 17.2 105.9 17.2 104.8 17.4 105.0
1989-10-11 00:00:00 17.0 105.5

top of pageTrack Data:Intensity

jtwc_wp tokyo cma hko td9636
Date Wind Pres Wind Pres Wind Pres Wind Pres Wind Pres
1989-09-28 00:00:00 20. 20.
1989-09-28 06:00:00 20. 1008. 20.
1989-09-28 12:00:00 20. 1006. 19. 1006. 20.
1989-09-28 18:00:00 20. 1004. 23. 1004. 20.
1989-09-29 00:00:00 25. 1004. 23. 1004. 25.
1989-09-29 06:00:00 30. 35. 1000. 29. 1000. 25. 1000. 25.
1989-09-29 12:00:00 30. 35. 1000. 39. 995. 25. 1000. 30.
1989-09-29 18:00:00 35. 40. 996. 39. 995. 30. 995. 30.
1989-09-30 00:00:00 40. 40. 994. 39. 995. 30. 995. 40.
1989-09-30 06:00:00 40. 40. 994. 39. 995. 35. 990. 40.
1989-09-30 12:00:00 45. 45. 990. 39. 990. 45. 985. 45.
1989-09-30 18:00:00 65. 55. 980. 49. 985. 60. 975. 65.
1989-10-01 00:00:00 90. 65. 970. 58. 980. 70. 965. 90.
1989-10-01 06:00:00 90. 70. 965. 68. 975. 70. 965. 90.
1989-10-01 12:00:00 100. 70. 960. 68. 970. 80. 955. 100.
1989-10-01 18:00:00 105. 80. 950. 78. 960. 90. 945. 100.
1989-10-02 00:00:00 115. 85. 945. 87. 950. 90. 945. 115.
1989-10-02 06:00:00 115. 85. 940. 97. 940. 100. 935. 115.
1989-10-02 12:00:00 120. 90. 930. 97. 940. 100. 935. 120.
1989-10-02 18:00:00 120. 95. 925. 97. 940. 90. 945. 120.
1989-10-03 00:00:00 120. 95. 925. 97. 935. 80. 950. 120.
1989-10-03 06:00:00 120. 95. 925. 97. 935. 80. 950. 120.
1989-10-03 12:00:00 120. 95. 925. 97. 935. 80. 950. 120.
1989-10-03 18:00:00 115. 90. 935. 97. 935. 75. 955. 120.
1989-10-04 00:00:00 115. 90. 935. 97. 935. 75. 955. 115.
jtwc_wp tokyo cma hko td9636
1989-10-04 06:00:00 115. 85. 940. 97. 940. 80. 950. 115.
1989-10-04 12:00:00 115. 85. 945. 97. 940. 85. 945. 115.
1989-10-04 18:00:00 125. 85. 945. 97. 940. 85. 945. 115.
1989-10-05 00:00:00 125. 85. 945. 97. 940. 95. 940. 125.
1989-10-05 06:00:00 130. 85. 945. 97. 940. 105. 930. 125.
1989-10-05 12:00:00 130. 85. 940. 97. 940. 115. 920. 130.
1989-10-05 18:00:00 130. 85. 940. 97. 945. 105. 930. 130.
1989-10-06 00:00:00 125. 80. 950. 87. 945. 80. 950. 125.
1989-10-06 06:00:00 115. 70. 960. 87. 950. 65. 960. 125.
1989-10-06 12:00:00 75. 70. 960. 87. 950. 65. 960. 75.
1989-10-06 18:00:00 75. 70. 960. 78. 955. 65. 960. 75.
1989-10-07 00:00:00 75. 75. 955. 78. 955. 70. 955. 75.
1989-10-07 06:00:00 70. 75. 955. 78. 960. 65. 960. 75.
1989-10-07 12:00:00 65. 75. 955. 78. 960. 65. 960. 65.
1989-10-07 18:00:00 65. 75. 955. 78. 960. 70. 955. 65.
1989-10-08 00:00:00 70. 75. 955. 78. 960. 80. 945. 70.
1989-10-08 06:00:00 85. 75. 955. 78. 960. 80. 945. 70.
1989-10-08 12:00:00 90. 75. 955. 78. 960. 80. 945. 90.
1989-10-08 18:00:00 90. 75. 955. 78. 960. 85. 940. 90.
1989-10-09 00:00:00 90. 75. 955. 78. 960. 85. 940. 90.
1989-10-09 06:00:00 95. 75. 955. 78. 960. 80. 945. 90.
1989-10-09 12:00:00 90. 75. 960. 78. 965. 70. 950. 90.
1989-10-09 18:00:00 85. 70. 965. 68. 965. 65. 955. 90.
1989-10-10 00:00:00 85. 70. 965. 68. 970. 55. 965. 85.
jtwc_wp tokyo cma hko td9636
1989-10-10 06:00:00 80. 65. 970. 68. 970. 50. 975. 85.
1989-10-10 12:00:00 60. 55. 980. 58. 980. 40. 985. 60.
1989-10-10 18:00:00 30. 35. 996. 29. 1002. 25.
1989-10-11 00:00:00 1004.

top of page Links to source data

Source Source file Format
jtwc_wp bwp261989.txt ATCF
tokyo bst_all.txt:Line=38275:ANGELA:8923 JMA text table
cma CH1989BST.txt:Storm=30:Angela CMA text table
hko tc-besttrack-data.txt:Line=20215:ANGELA HKO Text table
td9636 cons_worldwide_trop_cyclone_18710101-19891231-003:Line=32060 TD 9636